createdAt,value
2022-09-16T00:02:10.370Z,19.00
2022-09-16T00:05:01.732Z,19.00
2022-09-16T00:07:53.333Z,19.00
2022-09-16T00:10:44.862Z,19.00
2022-09-16T00:16:20.418Z,19.00
2022-09-16T00:19:12.828Z,19.00
2022-09-16T00:22:03.924Z,19.00
2022-09-16T00:27:34.800Z,19.00
2022-09-16T00:33:09.736Z,18.90
2022-09-16T00:36:12.623Z,18.90
2022-09-16T00:39:05.107Z,18.90
2022-09-16T00:41:56.581Z,18.90
2022-09-16T00:44:57.750Z,18.90
2022-09-16T00:47:52.394Z,18.90
2022-09-16T00:50:47.295Z,18.90
2022-09-16T00:56:17.896Z,19.00
2022-09-16T00:59:12.300Z,19.00
2022-09-16T01:02:06.597Z,19.00
2022-09-16T01:05:00.948Z,19.00
2022-09-16T01:07:53.794Z,19.00
2022-09-16T01:10:45.536Z,19.00
2022-09-16T01:16:19.512Z,19.00
2022-09-16T01:19:16.097Z,19.00
2022-09-16T01:22:12.263Z,19.00
2022-09-16T01:25:09.149Z,19.00
2022-09-16T01:28:41.334Z,19.00
2022-09-16T01:31:35.651Z,19.10
2022-09-16T01:34:30.681Z,19.10
2022-09-16T01:37:26.030Z,19.10
2022-09-16T01:40:20.296Z,19.10
2022-09-16T01:45:55.650Z,18.90
2022-09-16T01:51:29.470Z,18.80
2022-09-16T01:57:04.362Z,18.80
2022-09-16T01:59:59.486Z,18.80
2022-09-16T02:02:53.857Z,18.80
2022-09-16T02:08:27.547Z,18.70
2022-09-16T02:11:20.275Z,18.70
2022-09-16T02:14:14.800Z,18.80
2022-09-16T02:19:49.846Z,18.80
2022-09-16T02:22:44.138Z,18.70
2022-09-16T02:25:37.417Z,18.80
2022-09-16T02:28:32.200Z,18.70
2022-09-16T02:34:09.850Z,18.70
2022-09-16T02:37:03.929Z,18.70
2022-09-16T02:40:00.374Z,18.60
2022-09-16T02:42:51.942Z,18.60
2022-09-16T02:45:48.689Z,18.50
2022-09-16T02:51:25.587Z,18.50
2022-09-16T02:57:00.468Z,18.60
2022-09-16T02:59:52.248Z,18.60
2022-09-16T03:02:44.026Z,18.50
2022-09-16T03:05:36.758Z,18.40
2022-09-16T03:08:28.453Z,18.30
2022-09-16T03:11:57.675Z,18.30
2022-09-16T03:15:14.495Z,18.20
2022-09-16T03:21:28.738Z,18.10
2022-09-16T03:27:05.569Z,18.10
2022-09-16T03:30:03.161Z,18.10
2022-09-16T03:32:58.263Z,18.10
2022-09-16T03:35:52.325Z,18.10
2022-09-16T03:38:45.480Z,18.20
2022-09-16T03:41:37.516Z,18.20
2022-09-16T03:44:35.361Z,18.30
2022-09-16T03:47:26.878Z,18.30
2022-09-16T03:53:00.833Z,18.30
2022-09-16T03:55:52.491Z,18.40
2022-09-16T03:58:43.917Z,18.40
2022-09-16T04:01:35.182Z,18.30
2022-09-16T04:04:26.941Z,18.40
2022-09-16T04:09:57.820Z,18.40
2022-09-16T04:12:49.081Z,18.40
2022-09-16T04:18:19.741Z,18.40
2022-09-16T04:21:11.478Z,18.40
2022-09-16T04:24:03.254Z,18.50
2022-09-16T04:29:35.020Z,18.50
2022-09-16T04:32:26.285Z,18.50
2022-09-16T04:35:22.022Z,18.60
2022-09-16T04:40:54.505Z,18.50
2022-09-16T04:43:45.501Z,18.50
2022-09-16T04:49:17.659Z,18.50
2022-09-16T04:52:08.937Z,18.50
2022-09-16T04:55:01.842Z,18.50
2022-09-16T04:57:53.521Z,18.50
2022-09-16T05:03:23.864Z,18.50
2022-09-16T05:06:20.652Z,18.50
2022-09-16T05:11:51.313Z,18.50
2022-09-16T05:14:42.302Z,18.50
2022-09-16T05:17:50.315Z,18.60
2022-09-16T05:20:27.220Z,18.60
2022-09-16T05:23:18.414Z,18.60
2022-09-16T05:26:12.429Z,18.60
2022-09-16T05:29:05.852Z,18.60
2022-09-16T05:31:58.240Z,18.60
2022-09-16T05:37:32.226Z,18.70
2022-09-16T05:43:01.729Z,18.60
2022-09-16T05:45:55.416Z,18.60
2022-09-16T05:51:26.420Z,18.70
2022-09-16T05:54:19.186Z,18.70
2022-09-16T05:57:10.751Z,18.70
2022-09-16T06:00:02.215Z,18.70
2022-09-16T06:02:55.012Z,18.70
2022-09-16T06:08:25.491Z,18.80
2022-09-16T06:11:17.049Z,18.80
2022-09-16T06:14:09.391Z,18.80
2022-09-16T06:17:00.898Z,18.80
2022-09-16T06:19:52.620Z,18.80
2022-09-16T06:22:43.935Z,18.80
2022-09-16T06:25:35.556Z,18.90
2022-09-16T06:31:11.139Z,18.90
2022-09-16T06:34:02.574Z,19.00
2022-09-16T06:36:54.215Z,19.00
2022-09-16T06:39:45.643Z,18.80
2022-09-16T06:42:38.104Z,18.80
2022-09-16T06:45:30.219Z,18.80
2022-09-16T06:51:03.922Z,18.80
2022-09-16T06:56:36.476Z,18.80
2022-09-16T06:59:27.698Z,18.80
2022-09-16T07:02:19.973Z,18.80
2022-09-16T07:05:12.356Z,18.80
2022-09-16T07:08:04.242Z,18.80
2022-09-16T07:11:01.148Z,18.90
2022-09-16T07:16:33.032Z,18.90
2022-09-16T07:19:24.626Z,18.90
2022-09-16T07:22:16.224Z,18.80
2022-09-16T07:25:08.844Z,18.80
2022-09-16T07:28:03.489Z,18.90
2022-09-16T07:30:55.322Z,19.10
2022-09-16T07:33:49.311Z,19.30
2022-09-16T07:39:28.026Z,19.60
2022-09-16T07:42:20.066Z,19.60
2022-09-16T07:45:18.519Z,19.50
2022-09-16T07:48:09.873Z,19.40
2022-09-16T07:53:52.956Z,19.50
2022-09-16T07:56:45.862Z,19.60
2022-09-16T07:59:37.179Z,19.50
2022-09-16T08:02:29.035Z,19.40
2022-09-16T08:05:22.208Z,19.30
2022-09-16T08:08:15.193Z,19.30
2022-09-16T08:11:09.632Z,19.30
2022-09-16T08:16:44.821Z,19.40
2022-09-16T08:19:38.350Z,19.40
2022-09-16T08:22:29.754Z,19.60
2022-09-16T08:25:21.815Z,19.90
2022-09-16T08:31:05.125Z,19.90
2022-09-16T08:36:48.358Z,20.10
2022-09-16T08:42:36.841Z,20.10
2022-09-16T08:45:31.697Z,20.10
2022-09-16T08:51:15.474Z,20.00
2022-09-16T08:54:10.101Z,20.10
2022-09-16T08:57:03.299Z,20.30
2022-09-16T09:02:44.697Z,20.50
2022-09-16T09:05:40.852Z,20.50
2022-09-16T09:08:42.121Z,20.40
2022-09-16T09:15:12.365Z,20.40
2022-09-16T09:18:17.892Z,20.50
2022-09-16T09:24:27.172Z,20.70
2022-09-16T09:27:21.089Z,20.70
2022-09-16T09:30:17.603Z,20.80
2022-09-16T09:36:05.366Z,20.80
2022-09-16T09:39:16.605Z,20.70
2022-09-16T09:42:13.027Z,20.70
2022-09-16T09:47:50.165Z,20.50
2022-09-16T09:50:45.026Z,20.40
2022-09-16T09:56:19.853Z,20.50
2022-09-16T09:59:16.027Z,20.60
2022-09-16T10:02:14.639Z,20.60
2022-09-16T10:05:08.063Z,20.70
2022-09-16T10:08:02.575Z,20.80
2022-09-16T10:10:57.033Z,20.70
2022-09-16T10:16:33.606Z,20.90
2022-09-16T10:22:12.948Z,21.00
2022-09-16T10:25:06.941Z,21.00
2022-09-16T10:28:01.088Z,21.20
2022-09-16T10:30:54.567Z,21.30
2022-09-16T10:33:46.534Z,21.30
2022-09-16T10:39:26.883Z,21.30
2022-09-16T10:42:23.599Z,21.30
2022-09-16T10:45:20.696Z,21.30
2022-09-16T10:48:17.107Z,21.20
2022-09-16T10:51:14.166Z,21.10
2022-09-16T10:54:09.113Z,21.10
2022-09-16T10:57:00.697Z,21.10
2022-09-16T11:03:07.492Z,21.20
2022-09-16T11:06:11.395Z,21.20
2022-09-16T11:09:10.483Z,21.30
2022-09-16T11:12:14.831Z,21.50
2022-09-16T11:17:56.820Z,21.50
2022-09-16T11:21:02.708Z,21.60
2022-09-16T11:24:09.406Z,21.70
2022-09-16T11:29:58.284Z,21.50
2022-09-16T11:33:07.274Z,21.50
2022-09-16T11:36:21.400Z,21.60
2022-09-16T11:39:25.090Z,21.60
2022-09-16T11:42:20.699Z,21.60
2022-09-16T11:45:25.934Z,21.50
2022-09-16T11:48:33.218Z,21.60
2022-09-16T11:51:33.454Z,21.70
2022-09-16T11:54:34.073Z,21.70
2022-09-16T11:57:28.386Z,21.70
2022-09-16T12:00:20.981Z,21.80
2022-09-16T12:03:15.457Z,21.90
2022-09-16T12:06:11.489Z,21.90
2022-09-16T12:09:07.769Z,21.80
2022-09-16T12:12:03.093Z,21.80
2022-09-16T12:14:59.978Z,21.90
2022-09-16T12:17:55.195Z,21.90
2022-09-16T12:20:50.067Z,22.00
2022-09-16T12:23:45.353Z,22.10
2022-09-16T12:26:40.035Z,22.20
2022-09-16T12:29:34.740Z,22.30
2022-09-16T12:32:30.440Z,22.50
2022-09-16T12:35:25.460Z,22.50
2022-09-16T12:38:19.408Z,22.50
2022-09-16T12:41:21.767Z,22.60
2022-09-16T12:44:42.601Z,22.80
2022-09-16T12:47:56.478Z,22.80
2022-09-16T12:50:55.339Z,22.80
2022-09-16T12:54:21.457Z,22.90
2022-09-16T12:57:20.993Z,23.00
2022-09-16T13:00:22.783Z,23.00
2022-09-16T13:03:17.470Z,22.90
2022-09-16T13:06:17.314Z,22.90
2022-09-16T13:09:21.951Z,23.00
2022-09-16T13:15:29.617Z,23.30
2022-09-16T13:18:28.127Z,23.40
2022-09-16T13:21:25.847Z,23.20
2022-09-16T13:24:20.354Z,23.10
2022-09-16T13:27:29.457Z,23.10
2022-09-16T13:30:36.009Z,23.00
2022-09-16T13:33:30.564Z,23.10
2022-09-16T13:36:36.560Z,22.90
2022-09-16T13:39:33.712Z,22.90
2022-09-16T13:42:26.339Z,23.00
2022-09-16T13:45:39.118Z,22.90
2022-09-16T13:48:40.782Z,22.80
2022-09-16T13:51:36.298Z,22.90
2022-09-16T13:54:43.182Z,22.80
2022-09-16T13:58:02.321Z,22.50
2022-09-16T14:00:59.552Z,22.30
2022-09-16T14:03:58.156Z,22.30
2022-09-16T14:07:00.384Z,22.40
2022-09-16T14:09:55.764Z,22.30
2022-09-16T14:12:52.512Z,22.10
2022-09-16T14:15:46.684Z,21.80
2022-09-16T14:18:38.337Z,21.60
2022-09-16T14:21:29.881Z,21.50
2022-09-16T14:24:22.455Z,21.50
2022-09-16T14:27:23.299Z,21.60
2022-09-16T14:30:18.918Z,21.60
2022-09-16T14:33:10.074Z,21.50
2022-09-16T14:36:03.326Z,21.40
2022-09-16T14:38:58.233Z,21.40
2022-09-16T14:41:52.372Z,21.50
2022-09-16T14:44:46.635Z,21.50
2022-09-16T14:47:51.081Z,21.70
2022-09-16T14:53:35.413Z,21.70
2022-09-16T14:56:21.482Z,21.90
2022-09-16T15:01:55.789Z,21.70
2022-09-16T15:04:49.293Z,21.80
2022-09-16T15:07:56.439Z,22.10
2022-09-16T15:10:51.519Z,22.50
2022-09-16T15:13:32.952Z,23.50
2022-09-16T15:16:27.179Z,23.90
2022-09-16T15:22:18.471Z,24.40
2022-09-16T15:25:24.491Z,24.40
2022-09-16T15:28:20.592Z,23.40
2022-09-16T15:31:13.084Z,23.00
2022-09-16T15:34:06.787Z,23.80
2022-09-16T15:36:59.527Z,24.00
2022-09-16T15:39:51.074Z,23.60
2022-09-16T15:42:42.904Z,23.00
2022-09-16T15:45:34.741Z,22.30
2022-09-16T15:51:28.378Z,22.30
2022-09-16T15:54:21.545Z,22.00
2022-09-16T15:57:16.546Z,21.70
2022-09-16T16:00:13.047Z,21.20
2022-09-16T16:03:08.287Z,21.10
2022-09-16T16:05:59.367Z,21.00
2022-09-16T16:08:52.707Z,21.10
2022-09-16T16:11:44.397Z,21.20
2022-09-16T16:14:37.399Z,21.10
2022-09-16T16:17:28.651Z,21.10
2022-09-16T16:20:24.811Z,21.00
2022-09-16T16:23:16.632Z,21.00
2022-09-16T16:26:10.744Z,21.10
2022-09-16T16:29:02.337Z,21.00
2022-09-16T16:32:06.825Z,21.00
2022-09-16T16:34:59.133Z,20.90
2022-09-16T16:37:50.903Z,20.80
2022-09-16T16:40:43.893Z,20.70
2022-09-16T16:43:35.224Z,20.70
2022-09-16T16:46:28.005Z,20.70
2022-09-16T16:49:19.545Z,20.70
2022-09-16T16:52:11.050Z,20.60
2022-09-16T16:55:02.381Z,20.50
2022-09-16T16:57:54.261Z,20.40
2022-09-16T17:00:45.977Z,20.40
2022-09-16T17:03:37.608Z,20.30
2022-09-16T17:06:30.239Z,20.20
2022-09-16T17:09:21.583Z,20.10
2022-09-16T17:12:13.564Z,20.20
2022-09-16T17:15:05.295Z,20.20
2022-09-16T17:17:56.689Z,20.20
2022-09-16T17:20:48.580Z,20.10
2022-09-16T17:23:40.424Z,20.00
2022-09-16T17:26:31.797Z,19.90
2022-09-16T17:29:23.262Z,19.90
2022-09-16T17:32:14.737Z,19.90
2022-09-16T17:35:07.248Z,19.90
2022-09-16T17:37:58.518Z,20.00
2022-09-16T17:40:49.916Z,19.90
2022-09-16T17:43:42.966Z,19.90
2022-09-16T17:46:34.739Z,19.90
2022-09-16T17:49:27.356Z,19.90
2022-09-16T17:54:57.996Z,19.80
2022-09-16T17:57:49.135Z,19.80
2022-09-16T18:00:40.760Z,19.60
2022-09-16T18:03:31.805Z,19.60
2022-09-16T18:06:25.139Z,19.50
2022-09-16T18:09:17.603Z,19.50
2022-09-16T18:12:09.250Z,19.50
2022-09-16T18:15:00.274Z,19.50
2022-09-16T18:17:51.824Z,19.40
2022-09-16T18:20:42.918Z,19.30
2022-09-16T18:23:34.504Z,19.30
2022-09-16T18:26:27.060Z,19.30
2022-09-16T18:32:06.426Z,19.30
2022-09-16T18:34:57.769Z,19.30
2022-09-16T18:37:48.801Z,19.20
2022-09-16T18:40:39.938Z,19.10
2022-09-16T18:43:31.250Z,19.00
2022-09-16T18:46:26.754Z,18.90
2022-09-16T18:49:20.191Z,18.80
2022-09-16T18:52:11.456Z,18.70
2022-09-16T18:55:02.782Z,18.60
2022-09-16T18:57:54.571Z,18.50
2022-09-16T19:00:47.394Z,18.50
2022-09-16T19:03:38.981Z,18.50
2022-09-16T19:06:31.590Z,18.40
2022-09-16T19:09:24.863Z,18.30
2022-09-16T19:12:16.002Z,18.30
2022-09-16T19:15:08.643Z,18.40
2022-09-16T19:17:59.990Z,18.40
2022-09-16T19:20:51.012Z,18.40
2022-09-16T19:23:41.840Z,18.30
2022-09-16T19:26:34.679Z,18.30
2022-09-16T19:29:25.908Z,18.30
2022-09-16T19:32:17.364Z,18.30
2022-09-16T19:35:09.861Z,18.30
2022-09-16T19:38:02.808Z,18.40
2022-09-16T19:40:55.508Z,18.40
2022-09-16T19:43:46.723Z,18.40
2022-09-16T19:46:40.409Z,18.40
2022-09-16T19:49:31.320Z,18.40
2022-09-16T19:52:22.217Z,18.30
2022-09-16T19:55:13.431Z,18.30
2022-09-16T19:58:04.829Z,18.30
2022-09-16T20:01:01.393Z,18.20
2022-09-16T20:03:52.830Z,18.20
2022-09-16T20:06:45.004Z,18.20
2022-09-16T20:09:36.456Z,18.20
2022-09-16T20:12:27.760Z,18.20
2022-09-16T20:15:18.908Z,18.30
2022-09-16T20:18:10.131Z,18.20
2022-09-16T20:21:05.981Z,18.30
2022-09-16T20:23:58.422Z,18.20
2022-09-16T20:26:51.281Z,18.10
2022-09-16T20:29:42.682Z,18.00
2022-09-16T20:32:34.312Z,18.10
2022-09-16T20:35:25.745Z,18.10
2022-09-16T20:38:17.162Z,17.90
2022-09-16T20:41:10.499Z,17.90
2022-09-16T20:44:02.208Z,17.90
2022-09-16T20:46:53.614Z,17.80
2022-09-16T20:49:51.915Z,17.80
2022-09-16T20:52:49.328Z,17.90
2022-09-16T20:55:40.452Z,17.80
2022-09-16T20:58:32.115Z,17.80
2022-09-16T21:01:25.860Z,17.70
2022-09-16T21:04:18.857Z,17.80
2022-09-16T21:07:11.746Z,17.70
2022-09-16T21:10:03.994Z,17.60
2022-09-16T21:12:57.323Z,17.60
2022-09-16T21:15:58.132Z,17.60
2022-09-16T21:18:49.779Z,17.60
2022-09-16T21:21:44.092Z,17.60
2022-09-16T21:24:35.253Z,17.60
2022-09-16T21:27:26.264Z,17.50
2022-09-16T21:30:19.104Z,17.50
2022-09-16T21:33:10.132Z,17.40
2022-09-16T21:36:08.673Z,17.40
2022-09-16T21:39:20.948Z,17.30
2022-09-16T21:42:23.035Z,17.40
2022-09-16T21:45:16.964Z,17.30
2022-09-16T21:48:35.298Z,17.30
2022-09-16T21:51:39.174Z,17.30
2022-09-16T21:54:34.090Z,17.20
2022-09-16T21:57:45.169Z,17.20
2022-09-16T22:00:46.364Z,17.20
2022-09-16T22:03:45.182Z,17.10
2022-09-16T22:06:49.897Z,17.10
2022-09-16T22:09:44.446Z,17.10
2022-09-16T22:12:38.577Z,17.20
2022-09-16T22:15:34.225Z,17.20
2022-09-16T22:18:30.824Z,17.20
2022-09-16T22:21:22.829Z,17.10
2022-09-16T22:24:17.614Z,17.10
2022-09-16T22:27:16.535Z,17.10
2022-09-16T22:30:13.937Z,17.10
2022-09-16T22:33:08.004Z,17.00
2022-09-16T22:36:17.281Z,16.90
2022-09-16T22:39:13.513Z,16.90
2022-09-16T22:42:05.184Z,16.90
2022-09-16T22:44:57.833Z,16.80
2022-09-16T22:47:49.040Z,16.80
2022-09-16T22:50:40.415Z,16.70
2022-09-16T22:53:33.268Z,16.80
2022-09-16T22:56:28.625Z,16.70
2022-09-16T22:59:24.303Z,16.60
2022-09-16T23:02:19.881Z,16.60
2022-09-16T23:05:32.701Z,16.50
2022-09-16T23:08:13.069Z,16.50
2022-09-16T23:11:05.776Z,16.40
2022-09-16T23:13:58.267Z,16.40
2022-09-16T23:16:49.736Z,16.40
2022-09-16T23:19:41.118Z,16.40
2022-09-16T23:22:32.507Z,16.50
2022-09-16T23:25:24.244Z,16.40
2022-09-16T23:28:15.311Z,16.40
2022-09-16T23:31:08.685Z,16.40
2022-09-16T23:34:00.862Z,16.30
2022-09-16T23:36:54.417Z,16.40
2022-09-16T23:39:45.810Z,16.40
2022-09-16T23:42:41.520Z,16.40
2022-09-16T23:45:32.704Z,16.40
2022-09-16T23:48:24.254Z,16.40
2022-09-16T23:51:16.022Z,16.40
2022-09-16T23:54:07.315Z,16.40
2022-09-16T23:56:58.906Z,16.50
2022-09-16T23:59:50.765Z,16.50
